sensor_id;sensor_type;location;lat;lon;timestamp;temperature;humidity
30300;DHT22;17110;52.602;12.998;2022-07-03T00:01:57;15.90;99.90
30300;DHT22;17110;52.602;12.998;2022-07-03T00:04:23;15.90;99.90
30300;DHT22;17110;52.602;12.998;2022-07-03T00:06:49;15.70;99.90
30300;DHT22;17110;52.602;12.998;2022-07-03T00:09:15;15.70;99.90
30300;DHT22;17110;52.602;12.998;2022-07-03T00:11:42;15.60;99.90
30300;DHT22;17110;52.602;12.998;2022-07-03T00:14:08;15.60;99.90
30300;DHT22;17110;52.602;12.998;2022-07-03T00:16:33;15.50;99.90
30300;DHT22;17110;52.602;12.998;2022-07-03T00:18:59;15.40;99.90
30300;DHT22;17110;52.602;12.998;2022-07-03T00:21:29;15.40;99.90
30300;DHT22;17110;52.602;12.998;2022-07-03T00:24:08;15.30;99.90
30300;DHT22;17110;52.602;12.998;2022-07-03T00:26:37;15.20;99.90
30300;DHT22;17110;52.602;12.998;2022-07-03T00:29:04;15.20;99.90
30300;DHT22;17110;52.602;12.998;2022-07-03T00:31:32;15.20;99.90
30300;DHT22;17110;52.602;12.998;2022-07-03T00:34:02;15.10;99.90
30300;DHT22;17110;52.602;12.998;2022-07-03T00:36:36;15.00;99.90
30300;DHT22;17110;52.602;12.998;2022-07-03T00:39:02;15.10;99.90
30300;DHT22;17110;52.602;12.998;2022-07-03T00:41:30;15.00;99.90
30300;DHT22;17110;52.602;12.998;2022-07-03T00:43:57;15.00;99.90
30300;DHT22;17110;52.602;12.998;2022-07-03T00:46:24;15.00;99.90
30300;DHT22;17110;52.602;12.998;2022-07-03T00:48:51;15.00;99.90
30300;DHT22;17110;52.602;12.998;2022-07-03T00:51:21;14.90;99.90
30300;DHT22;17110;52.602;12.998;2022-07-03T00:53:54;14.90;99.90
30300;DHT22;17110;52.602;12.998;2022-07-03T00:56:25;14.90;99.90
30300;DHT22;17110;52.602;12.998;2022-07-03T00:59:00;14.90;99.90
30300;DHT22;17110;52.602;12.998;2022-07-03T01:01:30;14.90;99.90
30300;DHT22;17110;52.602;12.998;2022-07-03T01:06:35;14.80;99.90
30300;DHT22;17110;52.602;12.998;2022-07-03T01:09:05;14.80;99.90
30300;DHT22;17110;52.602;12.998;2022-07-03T01:11:38;14.80;99.90
30300;DHT22;17110;52.602;12.998;2022-07-03T01:14:29;14.70;99.90
30300;DHT22;17110;52.602;12.998;2022-07-03T01:17:09;14.70;99.90
30300;DHT22;17110;52.602;12.998;2022-07-03T01:19:44;14.60;99.90
30300;DHT22;17110;52.602;12.998;2022-07-03T01:22:26;14.70;99.90
30300;DHT22;17110;52.602;12.998;2022-07-03T01:25:12;14.60;99.90
30300;DHT22;17110;52.602;12.998;2022-07-03T01:30:32;14.50;99.90
30300;DHT22;17110;52.602;12.998;2022-07-03T01:32:59;14.50;99.90
30300;DHT22;17110;52.602;12.998;2022-07-03T01:35:39;14.40;99.90
30300;DHT22;17110;52.602;12.998;2022-07-03T01:38:11;14.50;99.90
30300;DHT22;17110;52.602;12.998;2022-07-03T01:40:40;14.50;99.90
30300;DHT22;17110;52.602;12.998;2022-07-03T01:43:08;14.40;99.90
30300;DHT22;17110;52.602;12.998;2022-07-03T01:45:47;14.40;99.90
30300;DHT22;17110;52.602;12.998;2022-07-03T01:48:14;14.30;99.90
30300;DHT22;17110;52.602;12.998;2022-07-03T01:50:41;14.30;99.90
30300;DHT22;17110;52.602;12.998;2022-07-03T01:53:09;14.30;99.90
30300;DHT22;17110;52.602;12.998;2022-07-03T01:55:39;14.30;99.90
30300;DHT22;17110;52.602;12.998;2022-07-03T01:58:05;14.20;99.90
30300;DHT22;17110;52.602;12.998;2022-07-03T02:00:41;14.20;99.90
30300;DHT22;17110;52.602;12.998;2022-07-03T02:03:08;14.10;99.90
30300;DHT22;17110;52.602;12.998;2022-07-03T02:05:45;14.10;99.90
30300;DHT22;17110;52.602;12.998;2022-07-03T02:10:44;14.10;99.90
30300;DHT22;17110;52.602;12.998;2022-07-03T02:13:32;14.10;99.90
30300;DHT22;17110;52.602;12.998;2022-07-03T02:16:02;14.10;99.90
30300;DHT22;17110;52.602;12.998;2022-07-03T02:18:31;14.00;99.90
30300;DHT22;17110;52.602;12.998;2022-07-03T02:21:07;14.10;99.90
30300;DHT22;17110;52.602;12.998;2022-07-03T02:23:42;14.00;99.90
30300;DHT22;17110;52.602;12.998;2022-07-03T02:26:16;14.00;99.90
30300;DHT22;17110;52.602;12.998;2022-07-03T02:28:50;14.00;99.90
30300;DHT22;17110;52.602;12.998;2022-07-03T02:31:21;14.00;99.90
30300;DHT22;17110;52.602;12.998;2022-07-03T02:33:50;13.90;99.90
30300;DHT22;17110;52.602;12.998;2022-07-03T02:36:22;13.90;99.90
30300;DHT22;17110;52.602;12.998;2022-07-03T02:38:52;14.00;99.90
30300;DHT22;17110;52.602;12.998;2022-07-03T02:41:42;13.90;99.90
30300;DHT22;17110;52.602;12.998;2022-07-03T02:44:38;13.80;99.90
30300;DHT22;17110;52.602;12.998;2022-07-03T02:47:12;13.80;99.90
30300;DHT22;17110;52.602;12.998;2022-07-03T02:50:05;13.80;99.90
30300;DHT22;17110;52.602;12.998;2022-07-03T02:58:38;13.80;99.90
30300;DHT22;17110;52.602;12.998;2022-07-03T03:01:37;13.80;99.90
30300;DHT22;17110;52.602;12.998;2022-07-03T03:06:47;13.80;99.90
30300;DHT22;17110;52.602;12.998;2022-07-03T03:09:20;13.70;99.90
30300;DHT22;17110;52.602;12.998;2022-07-03T03:11:47;13.80;99.90
30300;DHT22;17110;52.602;12.998;2022-07-03T03:14:18;13.80;99.90
30300;DHT22;17110;52.602;12.998;2022-07-03T03:16:50;13.90;99.90
30300;DHT22;17110;52.602;12.998;2022-07-03T03:19:20;13.90;99.90
30300;DHT22;17110;52.602;12.998;2022-07-03T03:24:38;13.90;99.90
30300;DHT22;17110;52.602;12.998;2022-07-03T03:27:04;13.90;99.90
30300;DHT22;17110;52.602;12.998;2022-07-03T03:29:30;13.90;99.90
30300;DHT22;17110;52.602;12.998;2022-07-03T03:31:57;13.90;99.90
30300;DHT22;17110;52.602;12.998;2022-07-03T03:34:22;13.90;99.90
30300;DHT22;17110;52.602;12.998;2022-07-03T03:36:49;13.90;99.90
30300;DHT22;17110;52.602;12.998;2022-07-03T03:39:15;13.90;99.90
30300;DHT22;17110;52.602;12.998;2022-07-03T03:41:41;13.90;99.90
30300;DHT22;17110;52.602;12.998;2022-07-03T03:44:07;13.80;99.90
30300;DHT22;17110;52.602;12.998;2022-07-03T03:46:33;13.90;99.90
30300;DHT22;17110;52.602;12.998;2022-07-03T03:48:59;13.90;99.90
30300;DHT22;17110;52.602;12.998;2022-07-03T03:51:25;13.90;99.90
30300;DHT22;17110;52.602;12.998;2022-07-03T03:53:50;13.90;99.90
30300;DHT22;17110;52.602;12.998;2022-07-03T03:56:16;14.00;99.90
30300;DHT22;17110;52.602;12.998;2022-07-03T03:58:42;14.10;99.90
30300;DHT22;17110;52.602;12.998;2022-07-03T04:01:09;14.10;99.90
30300;DHT22;17110;52.602;12.998;2022-07-03T04:03:36;14.20;99.90
30300;DHT22;17110;52.602;12.998;2022-07-03T04:06:02;14.20;99.90
30300;DHT22;17110;52.602;12.998;2022-07-03T04:08:29;14.20;99.90
30300;DHT22;17110;52.602;12.998;2022-07-03T04:10:55;14.20;99.90
30300;DHT22;17110;52.602;12.998;2022-07-03T04:13:21;14.30;99.90
30300;DHT22;17110;52.602;12.998;2022-07-03T04:15:48;14.40;99.90
30300;DHT22;17110;52.602;12.998;2022-07-03T04:18:14;14.50;99.90
30300;DHT22;17110;52.602;12.998;2022-07-03T04:20:40;14.60;99.90
30300;DHT22;17110;52.602;12.998;2022-07-03T04:23:06;14.70;99.90
30300;DHT22;17110;52.602;12.998;2022-07-03T04:25:32;14.30;99.90
30300;DHT22;17110;52.602;12.998;2022-07-03T04:27:58;14.80;99.90
30300;DHT22;17110;52.602;12.998;2022-07-03T04:30:23;14.90;99.90
30300;DHT22;17110;52.602;12.998;2022-07-03T04:32:49;15.00;99.90
30300;DHT22;17110;52.602;12.998;2022-07-03T04:35:15;15.30;99.90
30300;DHT22;17110;52.602;12.998;2022-07-03T04:37:42;15.50;99.90
30300;DHT22;17110;52.602;12.998;2022-07-03T04:40:08;15.60;99.90
30300;DHT22;17110;52.602;12.998;2022-07-03T04:42:34;15.80;99.90
30300;DHT22;17110;52.602;12.998;2022-07-03T04:45:00;16.10;99.90
30300;DHT22;17110;52.602;12.998;2022-07-03T04:47:26;16.30;99.90
30300;DHT22;17110;52.602;12.998;2022-07-03T04:49:52;16.70;99.90
30300;DHT22;17110;52.602;12.998;2022-07-03T04:52:17;17.20;99.90
30300;DHT22;17110;52.602;12.998;2022-07-03T04:54:43;17.60;99.90
30300;DHT22;17110;52.602;12.998;2022-07-03T04:57:09;18.00;99.90
30300;DHT22;17110;52.602;12.998;2022-07-03T04:59:35;18.30;99.90
30300;DHT22;17110;52.602;12.998;2022-07-03T05:02:01;18.60;99.90
30300;DHT22;17110;52.602;12.998;2022-07-03T05:04:26;19.00;99.90
30300;DHT22;17110;52.602;12.998;2022-07-03T05:06:52;19.70;99.90
30300;DHT22;17110;52.602;12.998;2022-07-03T05:09:18;20.40;99.90
30300;DHT22;17110;52.602;12.998;2022-07-03T05:11:46;20.80;99.90
30300;DHT22;17110;52.602;12.998;2022-07-03T05:14:12;21.00;99.90
30300;DHT22;17110;52.602;12.998;2022-07-03T05:16:38;21.00;99.90
30300;DHT22;17110;52.602;12.998;2022-07-03T05:19:03;21.30;99.90
30300;DHT22;17110;52.602;12.998;2022-07-03T06:27:34;24.60;99.40
30300;DHT22;17110;52.602;12.998;2022-07-03T06:37:21;25.60;96.30
30300;DHT22;17110;52.602;12.998;2022-07-03T06:39:47;25.70;96.10
30300;DHT22;17110;52.602;12.998;2022-07-03T06:42:12;25.70;94.50
30300;DHT22;17110;52.602;12.998;2022-07-03T06:44:38;25.70;95.70
30300;DHT22;17110;52.602;12.998;2022-07-03T06:47:04;25.70;95.40
30300;DHT22;17110;52.602;12.998;2022-07-03T06:49:32;25.70;95.00
30300;DHT22;17110;52.602;12.998;2022-07-03T06:51:58;25.90;95.40
30300;DHT22;17110;52.602;12.998;2022-07-03T06:54:24;26.10;94.60
30300;DHT22;17110;52.602;12.998;2022-07-03T06:59:18;26.70;93.80
30300;DHT22;17110;52.602;12.998;2022-07-03T07:01:44;26.80;93.40
30300;DHT22;17110;52.602;12.998;2022-07-03T07:04:09;27.10;93.30
30300;DHT22;17110;52.602;12.998;2022-07-03T07:06:35;27.40;92.30
30300;DHT22;17110;52.602;12.998;2022-07-03T07:09:01;27.50;91.60
30300;DHT22;17110;52.602;12.998;2022-07-03T07:11:27;27.90;91.60
30300;DHT22;17110;52.602;12.998;2022-07-03T07:13:53;27.90;91.60
30300;DHT22;17110;52.602;12.998;2022-07-03T07:18:44;28.40;99.90
30300;DHT22;17110;52.602;12.998;2022-07-03T07:21:11;28.40;90.00
30300;DHT22;17110;52.602;12.998;2022-07-03T07:23:37;28.40;99.90
30300;DHT22;17110;52.602;12.998;2022-07-03T07:26:03;28.50;99.90
30300;DHT22;17110;52.602;12.998;2022-07-03T07:30:55;27.90;99.90
30300;DHT22;17110;52.602;12.998;2022-07-03T07:33:23;28.10;99.90
30300;DHT22;17110;52.602;12.998;2022-07-03T07:35:49;28.20;97.20
30300;DHT22;17110;52.602;12.998;2022-07-03T07:38:15;28.20;96.50
30300;DHT22;17110;52.602;12.998;2022-07-03T07:40:41;28.20;89.90
30300;DHT22;17110;52.602;12.998;2022-07-03T07:43:09;28.10;99.90
30300;DHT22;17110;52.602;12.998;2022-07-03T07:45:35;28.20;99.90
30300;DHT22;17110;52.602;12.998;2022-07-03T07:55:19;27.80;88.50
30300;DHT22;17110;52.602;12.998;2022-07-03T07:57:46;27.90;90.00
30300;DHT22;17110;52.602;12.998;2022-07-03T08:00:15;27.90;88.50
30300;DHT22;17110;52.602;12.998;2022-07-03T08:02:42;28.00;89.00
30300;DHT22;17110;52.602;12.998;2022-07-03T08:05:28;27.90;85.20
30300;DHT22;17110;52.602;12.998;2022-07-03T08:08:11;27.50;86.20
30300;DHT22;17110;52.602;12.998;2022-07-03T08:10:44;27.50;86.70
30300;DHT22;17110;52.602;12.998;2022-07-03T08:13:11;27.60;89.20
30300;DHT22;17110;52.602;12.998;2022-07-03T08:15:37;27.70;86.50
30300;DHT22;17110;52.602;12.998;2022-07-03T08:18:04;27.70;86.50
30300;DHT22;17110;52.602;12.998;2022-07-03T08:20:30;27.60;85.90
30300;DHT22;17110;52.602;12.998;2022-07-03T08:22:56;27.40;85.20
30300;DHT22;17110;52.602;12.998;2022-07-03T08:25:23;27.40;84.70
30300;DHT22;17110;52.602;12.998;2022-07-03T08:27:49;27.30;85.60
30300;DHT22;17110;52.602;12.998;2022-07-03T08:30:15;27.20;85.60
30300;DHT22;17110;52.602;12.998;2022-07-03T08:32:47;27.20;84.60
30300;DHT22;17110;52.602;12.998;2022-07-03T08:35:13;27.40;87.30
30300;DHT22;17110;52.602;12.998;2022-07-03T08:37:41;27.60;86.30
30300;DHT22;17110;52.602;12.998;2022-07-03T08:40:09;27.90;97.70
30300;DHT22;17110;52.602;12.998;2022-07-03T08:42:37;27.80;97.80
30300;DHT22;17110;52.602;12.998;2022-07-03T08:45:06;27.90;88.50
30300;DHT22;17110;52.602;12.998;2022-07-03T08:47:33;27.90;86.60
30300;DHT22;17110;52.602;12.998;2022-07-03T08:50:01;27.80;87.60
30300;DHT22;17110;52.602;12.998;2022-07-03T08:52:28;27.80;86.90
30300;DHT22;17110;52.602;12.998;2022-07-03T08:54:54;27.70;83.00
30300;DHT22;17110;52.602;12.998;2022-07-03T08:57:20;27.80;85.00
30300;DHT22;17110;52.602;12.998;2022-07-03T08:59:52;27.80;83.00
30300;DHT22;17110;52.602;12.998;2022-07-03T09:02:18;27.90;84.50
30300;DHT22;17110;52.602;12.998;2022-07-03T09:04:45;28.00;81.70
30300;DHT22;17110;52.602;12.998;2022-07-03T09:07:11;28.00;82.10
30300;DHT22;17110;52.602;12.998;2022-07-03T09:09:39;28.10;81.00
30300;DHT22;17110;52.602;12.998;2022-07-03T09:12:06;28.10;82.30
30300;DHT22;17110;52.602;12.998;2022-07-03T09:14:32;28.10;80.60
30300;DHT22;17110;52.602;12.998;2022-07-03T09:16:58;28.10;82.40
30300;DHT22;17110;52.602;12.998;2022-07-03T09:19:47;28.30;80.80
30300;DHT22;17110;52.602;12.998;2022-07-03T09:22:27;28.40;83.50
30300;DHT22;17110;52.602;12.998;2022-07-03T09:25:15;28.40;80.90
30300;DHT22;17110;52.602;12.998;2022-07-03T09:27:53;28.50;80.20
30300;DHT22;17110;52.602;12.998;2022-07-03T09:30:19;28.40;81.40
30300;DHT22;17110;52.602;12.998;2022-07-03T09:32:46;28.50;80.30
30300;DHT22;17110;52.602;12.998;2022-07-03T09:37:51;28.70;99.70
30300;DHT22;17110;52.602;12.998;2022-07-03T09:40:19;28.90;99.90
30300;DHT22;17110;52.602;12.998;2022-07-03T09:43:04;28.90;99.90
30300;DHT22;17110;52.602;12.998;2022-07-03T09:59:09;29.40;80.90
30300;DHT22;17110;52.602;12.998;2022-07-03T11:43:52;29.50;99.90
30300;DHT22;17110;52.602;12.998;2022-07-03T11:46:21;29.80;99.90
30300;DHT22;17110;52.602;12.998;2022-07-03T11:48:47;29.80;99.40
30300;DHT22;17110;52.602;12.998;2022-07-03T11:51:14;30.00;99.90
30300;DHT22;17110;52.602;12.998;2022-07-03T11:53:40;30.10;99.80
30300;DHT22;17110;52.602;12.998;2022-07-03T11:56:12;30.00;99.90
30300;DHT22;17110;52.602;12.998;2022-07-03T11:58:48;30.10;99.90
30300;DHT22;17110;52.602;12.998;2022-07-03T12:06:20;30.00;99.90
30300;DHT22;17110;52.602;12.998;2022-07-03T12:29:18;30.30;69.80
30300;DHT22;17110;52.602;12.998;2022-07-03T12:31:46;30.30;72.80
30300;DHT22;17110;52.602;12.998;2022-07-03T12:34:13;30.30;73.90
30300;DHT22;17110;52.602;12.998;2022-07-03T12:36:40;30.30;73.80
30300;DHT22;17110;52.602;12.998;2022-07-03T12:39:06;30.20;74.30
30300;DHT22;17110;52.602;12.998;2022-07-03T12:41:32;30.30;79.40
30300;DHT22;17110;52.602;12.998;2022-07-03T12:43:59;30.20;96.70
30300;DHT22;17110;52.602;12.998;2022-07-03T12:58:57;30.80;72.40
30300;DHT22;17110;52.602;12.998;2022-07-03T13:01:41;31.10;70.90
30300;DHT22;17110;52.602;12.998;2022-07-03T13:04:08;31.20;73.70
30300;DHT22;17110;52.602;12.998;2022-07-03T13:06:34;31.20;72.20
30300;DHT22;17110;52.602;12.998;2022-07-03T13:09:04;31.10;71.90
30300;DHT22;17110;52.602;12.998;2022-07-03T13:11:41;31.00;72.70
30300;DHT22;17110;52.602;12.998;2022-07-03T13:14:16;30.70;73.20
30300;DHT22;17110;52.602;12.998;2022-07-03T13:16:45;30.50;75.40
30300;DHT22;17110;52.602;12.998;2022-07-03T13:19:13;30.30;72.90
30300;DHT22;17110;52.602;12.998;2022-07-03T13:21:40;30.50;74.70
30300;DHT22;17110;52.602;12.998;2022-07-03T13:24:07;30.50;74.30
30300;DHT22;17110;52.602;12.998;2022-07-03T13:26:33;30.50;76.50
30300;DHT22;17110;52.602;12.998;2022-07-03T13:28:59;30.40;74.90
30300;DHT22;17110;52.602;12.998;2022-07-03T13:31:26;30.60;74.70
30300;DHT22;17110;52.602;12.998;2022-07-03T13:33:52;30.90;72.50
30300;DHT22;17110;52.602;12.998;2022-07-03T13:36:17;31.00;73.40
30300;DHT22;17110;52.602;12.998;2022-07-03T13:38:44;30.90;72.70
30300;DHT22;17110;52.602;12.998;2022-07-03T13:41:10;30.70;72.30
30300;DHT22;17110;52.602;12.998;2022-07-03T13:43:36;30.60;70.50
30300;DHT22;17110;52.602;12.998;2022-07-03T13:46:01;30.40;71.70
30300;DHT22;17110;52.602;12.998;2022-07-03T13:48:27;30.20;72.60
30300;DHT22;17110;52.602;12.998;2022-07-03T13:50:53;30.10;73.10
30300;DHT22;17110;52.602;12.998;2022-07-03T13:53:18;30.00;71.90
30300;DHT22;17110;52.602;12.998;2022-07-03T14:00:36;29.90;70.90
30300;DHT22;17110;52.602;12.998;2022-07-03T14:03:05;29.90;71.20
30300;DHT22;17110;52.602;12.998;2022-07-03T14:05:31;30.00;73.70
30300;DHT22;17110;52.602;12.998;2022-07-03T14:07:57;30.00;71.80
30300;DHT22;17110;52.602;12.998;2022-07-03T14:10:23;30.00;72.90
30300;DHT22;17110;52.602;12.998;2022-07-03T14:12:50;29.90;71.40
30300;DHT22;17110;52.602;12.998;2022-07-03T14:15:16;30.00;71.00
30300;DHT22;17110;52.602;12.998;2022-07-03T14:17:42;30.00;73.80
30300;DHT22;17110;52.602;12.998;2022-07-03T14:20:09;30.10;72.90
30300;DHT22;17110;52.602;12.998;2022-07-03T14:22:35;30.10;72.90
30300;DHT22;17110;52.602;12.998;2022-07-03T14:25:01;30.10;71.60
30300;DHT22;17110;52.602;12.998;2022-07-03T14:27:27;30.10;74.00
30300;DHT22;17110;52.602;12.998;2022-07-03T14:30:12;30.20;73.70
30300;DHT22;17110;52.602;12.998;2022-07-03T14:32:56;30.20;71.90
30300;DHT22;17110;52.602;12.998;2022-07-03T14:35:22;30.20;70.70
30300;DHT22;17110;52.602;12.998;2022-07-03T14:37:48;30.30;72.00
30300;DHT22;17110;52.602;12.998;2022-07-03T14:40:14;30.20;73.00
30300;DHT22;17110;52.602;12.998;2022-07-03T14:42:40;30.20;72.50
30300;DHT22;17110;52.602;12.998;2022-07-03T14:45:07;30.20;70.40
30300;DHT22;17110;52.602;12.998;2022-07-03T14:47:33;30.20;72.20
30300;DHT22;17110;52.602;12.998;2022-07-03T14:49:59;30.40;72.80
30300;DHT22;17110;52.602;12.998;2022-07-03T14:52:26;30.40;72.00
30300;DHT22;17110;52.602;12.998;2022-07-03T14:54:52;30.50;70.10
30300;DHT22;17110;52.602;12.998;2022-07-03T14:57:30;30.70;71.70
30300;DHT22;17110;52.602;12.998;2022-07-03T15:00:12;30.70;72.00
30300;DHT22;17110;52.602;12.998;2022-07-03T15:03:10;30.70;71.80
30300;DHT22;17110;52.602;12.998;2022-07-03T15:05:41;30.50;71.70
30300;DHT22;17110;52.602;12.998;2022-07-03T15:10:45;30.50;71.50
30300;DHT22;17110;52.602;12.998;2022-07-03T15:13:13;30.60;70.30
30300;DHT22;17110;52.602;12.998;2022-07-03T15:15:42;30.60;69.80
30300;DHT22;17110;52.602;12.998;2022-07-03T15:18:11;30.60;71.00
30300;DHT22;17110;52.602;12.998;2022-07-03T15:20:38;30.50;71.10
30300;DHT22;17110;52.602;12.998;2022-07-03T15:23:05;30.40;70.70
30300;DHT22;17110;52.602;12.998;2022-07-03T15:25:33;30.40;70.70
30300;DHT22;17110;52.602;12.998;2022-07-03T15:28:01;30.50;70.30
30300;DHT22;17110;52.602;12.998;2022-07-03T15:30:28;30.50;70.80
30300;DHT22;17110;52.602;12.998;2022-07-03T15:32:54;30.50;71.90
30300;DHT22;17110;52.602;12.998;2022-07-03T15:35:24;30.50;71.80
30300;DHT22;17110;52.602;12.998;2022-07-03T15:38:10;30.50;73.00
30300;DHT22;17110;52.602;12.998;2022-07-03T15:40:51;30.40;72.50
30300;DHT22;17110;52.602;12.998;2022-07-03T15:43:24;30.40;72.30
30300;DHT22;17110;52.602;12.998;2022-07-03T15:46:19;30.40;71.80
30300;DHT22;17110;52.602;12.998;2022-07-03T15:48:52;30.30;71.10
30300;DHT22;17110;52.602;12.998;2022-07-03T15:51:29;30.30;70.60
30300;DHT22;17110;52.602;12.998;2022-07-03T15:54:02;30.40;68.40
30300;DHT22;17110;52.602;12.998;2022-07-03T15:56:32;30.20;72.50
30300;DHT22;17110;52.602;12.998;2022-07-03T15:59:13;30.10;71.60
30300;DHT22;17110;52.602;12.998;2022-07-03T16:02:02;30.00;73.10
30300;DHT22;17110;52.602;12.998;2022-07-03T16:07:26;30.00;72.10
30300;DHT22;17110;52.602;12.998;2022-07-03T16:09:57;30.00;73.20
30300;DHT22;17110;52.602;12.998;2022-07-03T16:12:27;30.00;72.40
30300;DHT22;17110;52.602;12.998;2022-07-03T16:14:54;29.90;72.10
30300;DHT22;17110;52.602;12.998;2022-07-03T16:17:21;29.80;72.50
30300;DHT22;17110;52.602;12.998;2022-07-03T16:19:49;29.70;71.60
30300;DHT22;17110;52.602;12.998;2022-07-03T16:22:16;29.70;72.20
30300;DHT22;17110;52.602;12.998;2022-07-03T16:24:42;29.60;71.90
30300;DHT22;17110;52.602;12.998;2022-07-03T16:27:13;29.70;71.00
30300;DHT22;17110;52.602;12.998;2022-07-03T16:29:39;29.60;71.60
30300;DHT22;17110;52.602;12.998;2022-07-03T16:32:06;29.50;70.80
30300;DHT22;17110;52.602;12.998;2022-07-03T16:35:01;29.50;71.70
30300;DHT22;17110;52.602;12.998;2022-07-03T16:37:37;29.40;71.10
30300;DHT22;17110;52.602;12.998;2022-07-03T16:40:06;29.40;70.50
30300;DHT22;17110;52.602;12.998;2022-07-03T16:42:34;29.40;70.30
30300;DHT22;17110;52.602;12.998;2022-07-03T16:45:08;29.60;72.20
30300;DHT22;17110;52.602;12.998;2022-07-03T16:47:42;30.10;70.50
30300;DHT22;17110;52.602;12.998;2022-07-03T16:50:14;30.40;70.50
30300;DHT22;17110;52.602;12.998;2022-07-03T16:52:43;30.80;68.80
30300;DHT22;17110;52.602;12.998;2022-07-03T16:55:10;30.80;69.40
30300;DHT22;17110;52.602;12.998;2022-07-03T16:57:58;31.00;69.20
30300;DHT22;17110;52.602;12.998;2022-07-03T17:00:27;31.10;68.80
30300;DHT22;17110;52.602;12.998;2022-07-03T17:02:54;31.20;68.00
30300;DHT22;17110;52.602;12.998;2022-07-03T17:05:25;31.30;67.90
30300;DHT22;17110;52.602;12.998;2022-07-03T17:07:54;31.30;67.70
30300;DHT22;17110;52.602;12.998;2022-07-03T17:10:27;31.30;66.80
30300;DHT22;17110;52.602;12.998;2022-07-03T17:13:18;31.00;67.80
30300;DHT22;17110;52.602;12.998;2022-07-03T17:15:45;30.70;69.00
30300;DHT22;17110;52.602;12.998;2022-07-03T17:18:12;30.50;69.60
30300;DHT22;17110;52.602;12.998;2022-07-03T17:20:45;30.40;69.40
30300;DHT22;17110;52.602;12.998;2022-07-03T17:23:20;30.30;70.80
30300;DHT22;17110;52.602;12.998;2022-07-03T17:26:09;30.00;70.10
30300;DHT22;17110;52.602;12.998;2022-07-03T17:28:47;29.60;71.00
30300;DHT22;17110;52.602;12.998;2022-07-03T17:31:18;29.30;72.20
30300;DHT22;17110;52.602;12.998;2022-07-03T17:33:47;29.00;73.70
30300;DHT22;17110;52.602;12.998;2022-07-03T17:36:32;28.70;74.40
30300;DHT22;17110;52.602;12.998;2022-07-03T17:38:58;28.50;74.60
30300;DHT22;17110;52.602;12.998;2022-07-03T17:41:26;28.30;75.30
30300;DHT22;17110;52.602;12.998;2022-07-03T17:43:53;28.20;75.90
30300;DHT22;17110;52.602;12.998;2022-07-03T17:46:27;28.10;76.60
30300;DHT22;17110;52.602;12.998;2022-07-03T17:48:54;27.90;76.70
30300;DHT22;17110;52.602;12.998;2022-07-03T17:51:25;27.80;77.10
30300;DHT22;17110;52.602;12.998;2022-07-03T17:53:52;27.80;77.70
30300;DHT22;17110;52.602;12.998;2022-07-03T17:56:21;27.80;78.20
30300;DHT22;17110;52.602;12.998;2022-07-03T17:58:49;27.70;80.30
30300;DHT22;17110;52.602;12.998;2022-07-03T18:01:17;27.60;82.50
30300;DHT22;17110;52.602;12.998;2022-07-03T18:03:44;27.50;86.40
30300;DHT22;17110;52.602;12.998;2022-07-03T18:06:18;27.40;87.90
30300;DHT22;17110;52.602;12.998;2022-07-03T18:17:08;26.90;89.20
30300;DHT22;17110;52.602;12.998;2022-07-03T18:19:34;26.70;89.00
30300;DHT22;17110;52.602;12.998;2022-07-03T18:22:01;26.60;90.30
30300;DHT22;17110;52.602;12.998;2022-07-03T18:24:30;26.50;91.10
30300;DHT22;17110;52.602;12.998;2022-07-03T18:27:11;26.50;91.60
30300;DHT22;17110;52.602;12.998;2022-07-03T18:29:42;26.40;92.00
30300;DHT22;17110;52.602;12.998;2022-07-03T18:32:10;26.30;92.30
30300;DHT22;17110;52.602;12.998;2022-07-03T18:34:37;26.10;92.60
30300;DHT22;17110;52.602;12.998;2022-07-03T18:37:07;26.00;92.90
30300;DHT22;17110;52.602;12.998;2022-07-03T18:39:35;25.70;92.90
30300;DHT22;17110;52.602;12.998;2022-07-03T18:42:01;25.70;93.40
30300;DHT22;17110;52.602;12.998;2022-07-03T18:44:29;25.40;93.60
30300;DHT22;17110;52.602;12.998;2022-07-03T18:46:57;25.20;94.10
30300;DHT22;17110;52.602;12.998;2022-07-03T18:49:23;25.10;94.60
30300;DHT22;17110;52.602;12.998;2022-07-03T19:04:45;24.20;99.90
30300;DHT22;17110;52.602;12.998;2022-07-03T19:07:13;24.30;99.90
30300;DHT22;17110;52.602;12.998;2022-07-03T19:09:48;24.10;98.70
30300;DHT22;17110;52.602;12.998;2022-07-03T19:12:17;23.90;98.70
30300;DHT22;17110;52.602;12.998;2022-07-03T19:14:44;23.70;98.70
30300;DHT22;17110;52.602;12.998;2022-07-03T19:17:14;23.50;99.10
30300;DHT22;17110;52.602;12.998;2022-07-03T19:19:42;23.40;99.20
30300;DHT22;17110;52.602;12.998;2022-07-03T19:22:08;23.20;99.10
30300;DHT22;17110;52.602;12.998;2022-07-03T19:24:36;23.10;98.90
30300;DHT22;17110;52.602;12.998;2022-07-03T19:27:02;22.90;99.30
30300;DHT22;17110;52.602;12.998;2022-07-03T19:29:28;22.80;99.60
30300;DHT22;17110;52.602;12.998;2022-07-03T19:31:54;22.60;99.90
30300;DHT22;17110;52.602;12.998;2022-07-03T19:34:20;22.50;99.90
30300;DHT22;17110;52.602;12.998;2022-07-03T19:36:46;22.40;99.90
30300;DHT22;17110;52.602;12.998;2022-07-03T19:39:12;22.20;99.90
30300;DHT22;17110;52.602;12.998;2022-07-03T19:41:38;22.10;99.90
30300;DHT22;17110;52.602;12.998;2022-07-03T19:44:04;22.00;99.90
30300;DHT22;17110;52.602;12.998;2022-07-03T19:46:30;21.90;99.90
30300;DHT22;17110;52.602;12.998;2022-07-03T19:48:56;21.80;99.90
30300;DHT22;17110;52.602;12.998;2022-07-03T19:51:25;21.70;99.90
30300;DHT22;17110;52.602;12.998;2022-07-03T19:53:51;21.70;99.90
30300;DHT22;17110;52.602;12.998;2022-07-03T19:56:17;21.70;99.90
30300;DHT22;17110;52.602;12.998;2022-07-03T19:58:43;21.60;99.90
30300;DHT22;17110;52.602;12.998;2022-07-03T20:01:09;21.60;99.90
30300;DHT22;17110;52.602;12.998;2022-07-03T20:03:35;21.50;99.90
30300;DHT22;17110;52.602;12.998;2022-07-03T20:06:00;21.50;99.90
30300;DHT22;17110;52.602;12.998;2022-07-03T20:08:26;21.40;99.90
30300;DHT22;17110;52.602;12.998;2022-07-03T20:10:52;21.30;99.90
30300;DHT22;17110;52.602;12.998;2022-07-03T20:13:18;21.10;99.90
30300;DHT22;17110;52.602;12.998;2022-07-03T20:15:44;21.20;99.90
30300;DHT22;17110;52.602;12.998;2022-07-03T20:18:10;21.10;99.90
30300;DHT22;17110;52.602;12.998;2022-07-03T20:20:36;21.00;99.90
30300;DHT22;17110;52.602;12.998;2022-07-03T20:23:02;20.90;99.90
30300;DHT22;17110;52.602;12.998;2022-07-03T20:25:28;20.90;99.90